sensor_id;sensor_type;location;lat;lon;timestamp;pressure;altitude;pressure_sealevel;temperature;humidity
42111;BME280;27766;52.174;5.456;2023-04-16T00:00:26;102121.75;;;8.41;100.00
42111;BME280;27766;52.174;5.456;2023-04-16T00:02:54;102119.41;;;8.46;100.00
42111;BME280;27766;52.174;5.456;2023-04-16T00:05:21;102120.88;;;8.40;100.00
42111;BME280;27766;52.174;5.456;2023-04-16T00:07:48;102116.47;;;8.38;100.00
42111;BME280;27766;52.174;5.456;2023-04-16T00:10:18;102112.41;;;8.43;100.00
42111;BME280;27766;52.174;5.456;2023-04-16T00:12:45;102117.00;;;8.49;100.00
42111;BME280;27766;52.174;5.456;2023-04-16T00:15:12;102118.81;;;8.33;100.00
42111;BME280;27766;52.174;5.456;2023-04-16T00:17:39;102113.22;;;8.42;100.00
42111;BME280;27766;52.174;5.456;2023-04-16T00:20:07;102117.72;;;8.46;100.00
42111;BME280;27766;52.174;5.456;2023-04-16T00:22:35;102124.22;;;8.38;100.00
42111;BME280;27766;52.174;5.456;2023-04-16T00:25:02;102121.63;;;8.56;100.00
42111;BME280;27766;52.174;5.456;2023-04-16T00:27:29;102113.53;;;8.48;100.00
42111;BME280;27766;52.174;5.456;2023-04-16T00:29:56;102113.53;;;8.48;100.00
42111;BME280;27766;52.174;5.456;2023-04-16T00:32:23;102118.97;;;8.54;100.00
42111;BME280;27766;52.174;5.456;2023-04-16T00:34:51;102124.28;;;8.58;100.00
42111;BME280;27766;52.174;5.456;2023-04-16T00:37:18;102118.84;;;8.51;100.00
42111;BME280;27766;52.174;5.456;2023-04-16T00:39:45;102106.44;;;8.44;100.00
42111;BME280;27766;52.174;5.456;2023-04-16T00:42:12;102120.63;;;8.52;100.00
42111;BME280;27766;52.174;5.456;2023-04-16T00:44:39;102112.13;;;8.55;100.00
42111;BME280;27766;52.174;5.456;2023-04-16T00:47:07;102121.41;;;8.51;100.00
42111;BME280;27766;52.174;5.456;2023-04-16T00:49:34;102122.38;;;8.53;100.00
42111;BME280;27766;52.174;5.456;2023-04-16T00:52:02;102124.22;;;8.56;100.00
42111;BME280;27766;52.174;5.456;2023-04-16T00:54:30;102120.31;;;8.46;100.00
42111;BME280;27766;52.174;5.456;2023-04-16T00:56:58;102128.84;;;8.45;100.00
42111;BME280;27766;52.174;5.456;2023-04-16T00:59:25;102123.19;;;8.52;100.00
42111;BME280;27766;52.174;5.456;2023-04-16T01:01:54;102128.25;;;8.51;100.00
42111;BME280;27766;52.174;5.456;2023-04-16T01:04:21;102122.78;;;8.45;100.00
42111;BME280;27766;52.174;5.456;2023-04-16T01:06:49;102121.84;;;8.61;100.00
42111;BME280;27766;52.174;5.456;2023-04-16T01:09:17;102119.19;;;8.59;100.00
42111;BME280;27766;52.174;5.456;2023-04-16T01:11:44;102121.69;;;8.58;100.00
42111;BME280;27766;52.174;5.456;2023-04-16T01:14:11;102116.19;;;8.50;100.00
42111;BME280;27766;52.174;5.456;2023-04-16T01:16:38;102130.84;;;8.51;100.00
42111;BME280;27766;52.174;5.456;2023-04-16T01:19:05;102121.63;;;8.38;100.00
42111;BME280;27766;52.174;5.456;2023-04-16T01:21:33;102125.47;;;8.46;100.00
42111;BME280;27766;52.174;5.456;2023-04-16T01:24:03;102121.97;;;8.46;100.00
42111;BME280;27766;52.174;5.456;2023-04-16T01:26:30;102116.91;;;8.47;100.00
42111;BME280;27766;52.174;5.456;2023-04-16T01:28:58;102122.78;;;8.45;100.00
42111;BME280;27766;52.174;5.456;2023-04-16T01:31:26;102123.94;;;8.50;100.00
42111;BME280;27766;52.174;5.456;2023-04-16T01:33:53;102119.09;;;8.39;100.00
42111;BME280;27766;52.174;5.456;2023-04-16T01:36:20;102127.22;;;8.47;100.00
42111;BME280;27766;52.174;5.456;2023-04-16T01:38:48;102121.34;;;8.50;100.00
42111;BME280;27766;52.174;5.456;2023-04-16T01:41:15;102123.41;;;8.57;100.00
42111;BME280;27766;52.174;5.456;2023-04-16T01:43:42;102128.25;;;8.51;100.00
42111;BME280;27766;52.174;5.456;2023-04-16T01:46:13;102134.66;;;8.41;100.00
42111;BME280;27766;52.174;5.456;2023-04-16T01:48:41;102129.66;;;8.44;100.00
42111;BME280;27766;52.174;5.456;2023-04-16T01:51:08;102123.41;;;8.57;100.00
42111;BME280;27766;52.174;5.456;2023-04-16T01:53:36;102132.09;;;8.59;100.00
42111;BME280;27766;52.174;5.456;2023-04-16T01:56:03;102132.84;;;8.57;100.00
42111;BME280;27766;52.174;5.456;2023-04-16T01:58:31;102138.09;;;8.58;100.00
42111;BME280;27766;52.174;5.456;2023-04-16T02:00:58;102136.09;;;8.52;100.00
42111;BME280;27766;52.174;5.456;2023-04-16T02:03:25;102129.00;;;8.48;100.00
42111;BME280;27766;52.174;5.456;2023-04-16T02:05:53;102116.59;;;8.59;100.00
42111;BME280;27766;52.174;5.456;2023-04-16T02:08:20;102121.47;;;8.53;100.00
42111;BME280;27766;52.174;5.456;2023-04-16T02:10:49;102121.09;;;8.45;100.00
42111;BME280;27766;52.174;5.456;2023-04-16T02:13:16;102120.31;;;8.46;100.00
42111;BME280;27766;52.174;5.456;2023-04-16T02:15:46;102129.44;;;8.58;100.00
42111;BME280;27766;52.174;5.456;2023-04-16T02:18:14;102125.91;;;8.55;100.00
42111;BME280;27766;52.174;5.456;2023-04-16T02:20:45;102115.28;;;8.49;100.00
42111;BME280;27766;52.174;5.456;2023-04-16T02:23:12;102118.16;;;8.55;100.00
42111;BME280;27766;52.174;5.456;2023-04-16T02:25:44;102129.59;;;8.61;100.00
42111;BME280;27766;52.174;5.456;2023-04-16T02:28:14;102128.25;;;8.51;100.00
42111;BME280;27766;52.174;5.456;2023-04-16T02:30:42;102122.22;;;8.50;100.00
42111;BME280;27766;52.174;5.456;2023-04-16T02:33:10;102124.28;;;8.58;100.00
42111;BME280;27766;52.174;5.456;2023-04-16T02:35:38;102126.22;;;8.62;100.00
42111;BME280;27766;52.174;5.456;2023-04-16T02:38:06;102122.78;;;8.63;100.00
42111;BME280;27766;52.174;5.456;2023-04-16T02:40:33;102121.09;;;8.63;100.00
42111;BME280;27766;52.174;5.456;2023-04-16T02:43:00;102115.50;;;8.54;100.00
42111;BME280;27766;52.174;5.456;2023-04-16T02:45:28;102123.69;;;8.63;100.00
42111;BME280;27766;52.174;5.456;2023-04-16T02:47:57;102128.69;;;8.60;100.00
42111;BME280;27766;52.174;5.456;2023-04-16T02:50:24;102130.69;;;8.66;100.00
42111;BME280;27766;52.174;5.456;2023-04-16T02:52:51;102129.72;;;8.64;100.00
42111;BME280;27766;52.174;5.456;2023-04-16T02:55:19;102125.53;;;8.66;100.00
42111;BME280;27766;52.174;5.456;2023-04-16T02:57:46;102120.91;;;8.59;100.00
42111;BME280;27766;52.174;5.456;2023-04-16T03:00:13;102127.41;;;8.70;100.00
42111;BME280;27766;52.174;5.456;2023-04-16T03:02:41;102138.59;;;8.69;100.00
42111;BME280;27766;52.174;5.456;2023-04-16T03:05:09;102126.06;;;8.59;100.00
42111;BME280;27766;52.174;5.456;2023-04-16T03:07:36;102134.28;;;8.69;100.00
42111;BME280;27766;52.174;5.456;2023-04-16T03:10:06;102136.81;;;8.68;100.00
42111;BME280;27766;52.174;5.456;2023-04-16T03:12:33;102131.16;;;8.57;100.00
42111;BME280;27766;52.174;5.456;2023-04-16T03:15:01;102143.38;;;8.61;100.00
42111;BME280;27766;52.174;5.456;2023-04-16T03:17:28;102143.38;;;8.61;100.00
42111;BME280;27766;52.174;5.456;2023-04-16T03:19:55;102151.34;;;8.66;100.00
42111;BME280;27766;52.174;5.456;2023-04-16T03:22:22;102151.00;;;8.58;100.00
42111;BME280;27766;52.174;5.456;2023-04-16T03:24:49;102148.31;;;8.57;100.00
42111;BME280;27766;52.174;5.456;2023-04-16T03:27:17;102149.94;;;8.54;100.00
42111;BME280;27766;52.174;5.456;2023-04-16T03:29:44;102155.53;;;8.64;100.00
42111;BME280;27766;52.174;5.456;2023-04-16T03:32:11;102157.75;;;8.74;100.00
42111;BME280;27766;52.174;5.456;2023-04-16T03:34:38;102155.81;;;8.70;100.00
42111;BME280;27766;52.174;5.456;2023-04-16T03:37:05;102159.44;;;8.55;100.00
42111;BME280;27766;52.174;5.456;2023-04-16T03:39:32;102156.06;;;8.57;100.00
42111;BME280;27766;52.174;5.456;2023-04-16T03:42:00;102156.97;;;8.57;100.00
42111;BME280;27766;52.174;5.456;2023-04-16T03:44:28;102152.88;;;8.62;100.00
42111;BME280;27766;52.174;5.456;2023-04-16T03:46:55;102159.81;;;8.63;100.00
42111;BME280;27766;52.174;5.456;2023-04-16T03:49:22;102163.66;;;8.71;100.00
42111;BME280;27766;52.174;5.456;2023-04-16T03:51:49;102153.84;;;8.64;100.00
42111;BME280;27766;52.174;5.456;2023-04-16T03:54:17;102158.28;;;8.67;100.00
42111;BME280;27766;52.174;5.456;2023-04-16T03:56:47;102165.56;;;8.58;100.00
42111;BME280;27766;52.174;5.456;2023-04-16T03:59:14;102149.94;;;8.54;100.00
42111;BME280;27766;52.174;5.456;2023-04-16T04:01:41;102160.34;;;8.56;100.00
42111;BME280;27766;52.174;5.456;2023-04-16T04:04:08;102164.59;;;8.55;100.00
42111;BME280;27766;52.174;5.456;2023-04-16T04:06:36;102160.06;;;8.50;100.00
42111;BME280;27766;52.174;5.456;2023-04-16T04:09:03;102158.78;;;8.42;100.00
42111;BME280;27766;52.174;5.456;2023-04-16T04:11:30;102159.66;;;8.42;100.00
42111;BME280;27766;52.174;5.456;2023-04-16T04:13:57;102160.13;;;8.51;100.00
42111;BME280;27766;52.174;5.456;2023-04-16T04:16:24;102161.91;;;8.52;100.00
42111;BME280;27766;52.174;5.456;2023-04-16T04:18:51;102152.72;;;8.41;100.00
42111;BME280;27766;52.174;5.456;2023-04-16T04:21:19;102165.13;;;8.48;100.00
42111;BME280;27766;52.174;5.456;2023-04-16T04:23:47;102172.50;;;8.59;100.00
42111;BME280;27766;52.174;5.456;2023-04-16T04:26:14;102172.50;;;8.59;100.00
42111;BME280;27766;52.174;5.456;2023-04-16T04:28:42;102169.56;;;8.51;100.00
42111;BME280;27766;52.174;5.456;2023-04-16T04:31:09;102178.19;;;8.51;100.00
42111;BME280;27766;52.174;5.456;2023-04-16T04:33:37;102176.16;;;8.46;100.00
42111;BME280;27766;52.174;5.456;2023-04-16T04:36:04;102170.75;;;8.58;100.00
42111;BME280;27766;52.174;5.456;2023-04-16T04:38:31;102179.97;;;8.52;100.00
42111;BME280;27766;52.174;5.456;2023-04-16T04:40:58;102175.44;;;8.48;100.00
42111;BME280;27766;52.174;5.456;2023-04-16T04:43:25;102183.84;;;8.44;100.00
42111;BME280;27766;52.174;5.456;2023-04-16T04:45:52;102188.28;;;8.47;100.00
42111;BME280;27766;52.174;5.456;2023-04-16T04:48:20;102190.06;;;8.48;100.00
42111;BME280;27766;52.174;5.456;2023-04-16T04:50:52;102184.47;;;8.40;100.00
42111;BME280;27766;52.174;5.456;2023-04-16T04:53:19;102197.72;;;8.46;100.00
42111;BME280;27766;52.174;5.456;2023-04-16T04:55:47;102196.03;;;8.47;100.00
42111;BME280;27766;52.174;5.456;2023-04-16T04:58:20;102190.06;;;8.48;100.00
42111;BME280;27766;52.174;5.456;2023-04-16T05:00:47;102197.50;;;8.60;100.00
42111;BME280;27766;52.174;5.456;2023-04-16T05:03:18;102189.91;;;8.63;100.00
42111;BME280;27766;52.174;5.456;2023-04-16T05:05:46;102195.16;;;8.64;100.00
42111;BME280;27766;52.174;5.456;2023-04-16T05:08:13;102199.41;;;8.64;100.00
42111;BME280;27766;52.174;5.456;2023-04-16T05:10:41;102196.19;;;8.68;100.00
42111;BME280;27766;52.174;5.456;2023-04-16T05:13:08;102194.03;;;8.77;100.00
42111;BME280;27766;52.174;5.456;2023-04-16T05:15:35;102185.84;;;8.68;100.00
42111;BME280;27766;52.174;5.456;2023-04-16T05:18:02;102195.22;;;8.66;100.00
42111;BME280;27766;52.174;5.456;2023-04-16T05:20:29;102199.78;;;8.71;100.00
42111;BME280;27766;52.174;5.456;2023-04-16T05:22:57;102200.53;;;8.69;100.00
42111;BME280;27766;52.174;5.456;2023-04-16T05:25:24;102202.59;;;8.76;100.00
42111;BME280;27766;52.174;5.456;2023-04-16T05:27:51;102192.06;;;8.71;100.00
42111;BME280;27766;52.174;5.456;2023-04-16T05:30:18;102202.28;;;8.70;100.00
42111;BME280;27766;52.174;5.456;2023-04-16T05:32:45;102189.03;;;8.62;100.00
42111;BME280;27766;52.174;5.456;2023-04-16T05:35:12;102203.25;;;8.72;100.00
42111;BME280;27766;52.174;5.456;2023-04-16T05:37:43;102203.69;;;8.81;100.00
42111;BME280;27766;52.174;5.456;2023-04-16T05:40:12;102209.22;;;8.71;100.00
42111;BME280;27766;52.174;5.456;2023-04-16T05:42:39;102191.88;;;8.68;100.00
42111;BME280;27766;52.174;5.456;2023-04-16T05:45:07;102211.00;;;8.72;100.00
42111;BME280;27766;52.174;5.456;2023-04-16T05:47:34;102215.28;;;8.71;100.00
42111;BME280;27766;52.174;5.456;2023-04-16T05:50:01;102211.28;;;8.78;100.00
42111;BME280;27766;52.174;5.456;2023-04-16T05:52:29;102213.72;;;8.75;100.00
42111;BME280;27766;52.174;5.456;2023-04-16T05:54:56;102218.09;;;8.76;100.00
42111;BME280;27766;52.174;5.456;2023-04-16T05:57:23;102220.72;;;8.78;100.00
42111;BME280;27766;52.174;5.456;2023-04-16T05:59:51;102221.09;;;8.67;100.00
42111;BME280;27766;52.174;5.456;2023-04-16T06:02:18;102223.91;;;8.72;100.00
42111;BME280;27766;52.174;5.456;2023-04-16T06:04:46;102222.94;;;8.70;100.00
42111;BME280;27766;52.174;5.456;2023-04-16T06:07:14;102223.09;;;8.73;100.00
42111;BME280;27766;52.174;5.456;2023-04-16T06:09:41;102219.19;;;8.63;100.00
42111;BME280;27766;52.174;5.456;2023-04-16T06:12:08;102227.50;;;8.76;100.00
42111;BME280;27766;52.174;5.456;2023-04-16T06:14:35;102232.25;;;8.84;100.00
42111;BME280;27766;52.174;5.456;2023-04-16T06:17:02;102223.66;;;8.85;100.00
42111;BME280;27766;52.174;5.456;2023-04-16T06:19:29;102230.28;;;8.98;100.00
42111;BME280;27766;52.174;5.456;2023-04-16T06:21:56;102232.06;;;8.99;100.00
42111;BME280;27766;52.174;5.456;2023-04-16T06:24:24;102240.56;;;8.97;100.00
42111;BME280;27766;52.174;5.456;2023-04-16T06:26:51;102246.25;;;8.90;100.00
42111;BME280;27766;52.174;5.456;2023-04-16T06:29:18;102253.25;;;8.92;100.00
42111;BME280;27766;52.174;5.456;2023-04-16T06:31:48;102245.28;;;8.87;100.00
42111;BME280;27766;52.174;5.456;2023-04-16T06:34:15;102247.75;;;8.84;100.00
42111;BME280;27766;52.174;5.456;2023-04-16T06:36:43;102248.97;;;8.75;100.00
42111;BME280;27766;52.174;5.456;2023-04-16T06:39:10;102253.94;;;8.88;100.00
42111;BME280;27766;52.174;5.456;2023-04-16T06:41:37;102260.94;;;8.91;100.00
42111;BME280;27766;52.174;5.456;2023-04-16T06:44:04;102255.91;;;8.94;100.00
42111;BME280;27766;52.174;5.456;2023-04-16T06:46:32;102256.88;;;8.96;100.00
42111;BME280;27766;52.174;5.456;2023-04-16T06:48:59;102247.34;;;8.95;100.00
42111;BME280;27766;52.174;5.456;2023-04-16T06:51:26;102257.59;;;8.93;100.00
42111;BME280;27766;52.174;5.456;2023-04-16T06:53:54;102261.97;;;8.94;100.00
42111;BME280;27766;52.174;5.456;2023-04-16T06:56:21;102264.38;;;8.91;100.00
42111;BME280;27766;52.174;5.456;2023-04-16T06:58:49;102268.97;;;8.97;100.00
42111;BME280;27766;52.174;5.456;2023-04-16T07:01:17;102267.78;;;8.90;100.00
42111;BME280;27766;52.174;5.456;2023-04-16T07:03:48;102266.38;;;8.97;100.00
42111;BME280;27766;52.174;5.456;2023-04-16T07:06:16;102274.41;;;9.03;100.00
42111;BME280;27766;52.174;5.456;2023-04-16T07:08:44;102266.88;;;9.08;100.00
42111;BME280;27766;52.174;5.456;2023-04-16T07:11:11;102278.09;;;9.08;100.00
42111;BME280;27766;52.174;5.456;2023-04-16T07:13:38;102278.50;;;8.98;100.00
42111;BME280;27766;52.174;5.456;2023-04-16T07:16:05;102281.19;;;9.01;100.00
42111;BME280;27766;52.174;5.456;2023-04-16T07:18:33;102280.66;;;9.08;100.00
42111;BME280;27766;52.174;5.456;2023-04-16T07:21:00;102292.13;;;9.13;100.00
42111;BME280;27766;52.174;5.456;2023-04-16T07:23:27;102290.69;;;9.20;100.00
42111;BME280;27766;52.174;5.456;2023-04-16T07:25:54;102286.69;;;9.07;100.00
42111;BME280;27766;52.174;5.456;2023-04-16T07:28:22;102293.75;;;9.11;100.00
42111;BME280;27766;52.174;5.456;2023-04-16T07:30:51;102287.31;;;9.03;100.00
42111;BME280;27766;52.174;5.456;2023-04-16T07:33:18;102294.44;;;9.07;100.00
42111;BME280;27766;52.174;5.456;2023-04-16T07:35:45;102293.75;;;9.11;100.00
42111;BME280;27766;52.174;5.456;2023-04-16T07:38:15;102290.81;;;9.03;100.00
42111;BME280;27766;52.174;5.456;2023-04-16T07:40:42;102299.47;;;9.24;100.00
42111;BME280;27766;52.174;5.456;2023-04-16T07:43:10;102291.22;;;9.31;100.00
42111;BME280;27766;52.174;5.456;2023-04-16T07:45:37;102300.59;;;9.29;100.00
42111;BME280;27766;52.174;5.456;2023-04-16T07:48:06;102310.25;;;9.33;100.00
42111;BME280;27766;52.174;5.456;2023-04-16T07:50:33;102311.16;;;9.33;100.00
42111;BME280;27766;52.174;5.456;2023-04-16T07:53:00;102313.25;;;9.42;100.00
42111;BME280;27766;52.174;5.456;2023-04-16T07:55:27;102328.44;;;9.34;100.00
42111;BME280;27766;52.174;5.456;2023-04-16T07:57:55;102317.19;;;9.34;100.00
42111;BME280;27766;52.174;5.456;2023-04-16T08:00:22;102323.03;;;9.30;100.00
42111;BME280;27766;52.174;5.456;2023-04-16T08:02:49;102318.38;;;9.41;100.00
42111;BME280;27766;52.174;5.456;2023-04-16T08:05:18;102313.81;;;9.35;100.00
42111;BME280;27766;52.174;5.456;2023-04-16T08:07:45;102327.16;;;9.44;100.00
42111;BME280;27766;52.174;5.456;2023-04-16T08:10:12;102331.84;;;9.53;100.00
42111;BME280;27766;52.174;5.456;2023-04-16T08:12:40;102330.03;;;9.50;100.00
42111;BME280;27766;52.174;5.456;2023-04-16T08:15:07;102333.34;;;9.48;100.00
42111;BME280;27766;52.174;5.456;2023-04-16T08:17:34;102338.84;;;9.56;100.00
42111;BME280;27766;52.174;5.456;2023-04-16T08:20:04;102339.81;;;9.58;100.00
42111;BME280;27766;52.174;5.456;2023-04-16T08:22:32;102346.78;;;9.59;100.00
42111;BME280;27766;52.174;5.456;2023-04-16T08:24:59;102354.09;;;9.49;100.00
42111;BME280;27766;52.174;5.456;2023-04-16T08:27:27;102353.22;;;9.49;100.00
42111;BME280;27766;52.174;5.456;2023-04-16T08:29:54;102358.06;;;9.43;100.00
42111;BME280;27766;52.174;5.456;2023-04-16T08:32:21;102338.94;;;9.39;100.00
42111;BME280;27766;52.174;5.456;2023-04-16T08:34:48;102345.69;;;9.54;100.00
42111;BME280;27766;52.174;5.456;2023-04-16T08:37:15;102354.53;;;9.59;100.00
42111;BME280;27766;52.174;5.456;2023-04-16T08:39:42;102355.13;;;9.53;100.00
42111;BME280;27766;52.174;5.456;2023-04-16T08:42:23;102354.66;;;9.62;100.00
42111;BME280;27766;52.174;5.456;2023-04-16T08:45:03;102355.66;;;9.65;100.00
42111;BME280;27766;52.174;5.456;2023-04-16T08:47:34;102365.41;;;9.52;100.00
42111;BME280;27766;52.174;5.456;2023-04-16T08:50:05;102363.16;;;9.59;100.00
42111;BME280;27766;52.174;5.456;2023-04-16T08:52:33;102376.28;;;9.64;100.00
42111;BME280;27766;52.174;5.456;2023-04-16T08:55:07;102372.63;;;9.78;100.00
42111;BME280;27766;52.174;5.456;2023-04-16T08:57:42;102369.25;;;9.79;100.00
42111;BME280;27766;52.174;5.456;2023-04-16T09:00:11;102358.78;;;9.58;100.00
42111;BME280;27766;52.174;5.456;2023-04-16T09:02:39;102365.28;;;9.68;100.00
42111;BME280;27766;52.174;5.456;2023-04-16T09:05:09;102367.63;;;9.81;100.00
42111;BME280;27766;52.174;5.456;2023-04-16T09:07:36;102363.75;;;9.91;100.00
42111;BME280;27766;52.174;5.456;2023-04-16T09:10:05;102368.25;;;9.95;100.00
42111;BME280;27766;52.174;5.456;2023-04-16T09:12:34;102373.97;;;9.88;100.00
42111;BME280;27766;52.174;5.456;2023-04-16T09:15:01;102371.44;;;9.90;100.00
42111;BME280;27766;52.174;5.456;2023-04-16T09:17:29;102371.09;;;10.02;100.00
42111;BME280;27766;52.174;5.456;2023-04-16T09:19:57;102366.25;;;10.09;100.00
42111;BME280;27766;52.174;5.456;2023-04-16T09:22:24;102369.97;;;10.14;100.00
42111;BME280;27766;52.174;5.456;2023-04-16T09:24:51;102374.50;;;10.20;100.00
42111;BME280;27766;52.174;5.456;2023-04-16T09:27:18;102376.59;;;10.09;100.00
42111;BME280;27766;52.174;5.456;2023-04-16T09:29:51;102374.38;;;10.17;100.00
42111;BME280;27766;52.174;5.456;2023-04-16T09:32:24;102382.41;;;10.23;100.00
42111;BME280;27766;52.174;5.456;2023-04-16T09:34:58;102385.88;;;10.04;100.00
42111;BME280;27766;52.174;5.456;2023-04-16T09:37:27;102390.84;;;10.19;100.00
42111;BME280;27766;52.174;5.456;2023-04-16T09:39:59;102393.50;;;10.21;100.00
42111;BME280;27766;52.174;5.456;2023-04-16T09:42:28;102393.09;;;10.11;100.00
42111;BME280;27766;52.174;5.456;2023-04-16T09:44:57;102396.91;;;10.20;100.00
42111;BME280;27766;52.174;5.456;2023-04-16T09:47:39;102391.88;;;10.23;100.00
42111;BME280;27766;52.174;5.456;2023-04-16T09:50:08;102395.28;;;10.22;100.00
42111;BME280;27766;52.174;5.456;2023-04-16T09:52:38;102406.44;;;10.21;100.00
42111;BME280;27766;52.174;5.456;2023-04-16T09:55:06;102395.53;;;10.08;100.00
42111;BME280;27766;52.174;5.456;2023-04-16T09:57:36;102410.66;;;10.19;100.00
42111;BME280;27766;52.174;5.456;2023-04-16T10:00:05;102402.47;;;10.09;100.00
42111;BME280;27766;52.174;5.456;2023-04-16T10:02:34;102417.88;;;10.06;100.00
42111;BME280;27766;52.174;5.456;2023-04-16T10:05:01;102396.75;;;9.97;100.00
42111;BME280;27766;52.174;5.456;2023-04-16T10:07:33;102406.41;;;10.01;100.00
42111;BME280;27766;52.174;5.456;2023-04-16T10:10:01;102409.38;;;10.09;100.00
42111;BME280;27766;52.174;5.456;2023-04-16T10:12:29;102411.69;;;10.22;100.00
42111;BME280;27766;52.174;5.456;2023-04-16T10:14:58;102416.31;;;10.10;100.00
42111;BME280;27766;52.174;5.456;2023-04-16T10:17:26;102412.22;;;10.15;100.00
42111;BME280;27766;52.174;5.456;2023-04-16T10:19:56;102417.34;;;10.13;100.00
42111;BME280;27766;52.174;5.456;2023-04-16T10:22:24;102409.44;;;10.10;100.00
42111;BME280;27766;52.174;5.456;2023-04-16T10:24:52;102417.00;;;10.25;100.00
42111;BME280;27766;52.174;5.456;2023-04-16T10:27:21;102419.38;;;10.21;100.00
42111;BME280;27766;52.174;5.456;2023-04-16T10:29:49;102417.38;;;10.35;100.00
42111;BME280;27766;52.174;5.456;2023-04-16T10:32:19;102417.03;;;10.45;100.00
42111;BME280;27766;52.174;5.456;2023-04-16T10:34:48;102426.06;;;10.35;100.00
42111;BME280;27766;52.174;5.456;2023-04-16T10:37:15;102410.63;;;10.37;100.00
42111;BME280;27766;52.174;5.456;2023-04-16T10:39:45;102416.16;;;10.44;100.00
42111;BME280;27766;52.174;5.456;2023-04-16T10:42:12;102424.78;;;10.45;100.00
42111;BME280;27766;52.174;5.456;2023-04-16T10:44:39;102422.00;;;10.40;100.00
42111;BME280;27766;52.174;5.456;2023-04-16T10:47:12;102429.13;;;10.26;100.00
42111;BME280;27766;52.174;5.456;2023-04-16T10:49:40;102424.03;;;10.28;100.00
42111;BME280;27766;52.174;5.456;2023-04-16T10:54:35;102428.13;;;10.23;100.00
42111;BME280;27766;52.174;5.456;2023-04-16T10:57:04;102427.47;;;10.28;100.00
42111;BME280;27766;52.174;5.456;2023-04-16T10:59:34;102423.63;;;10.38;100.00
42111;BME280;27766;52.174;5.456;2023-04-16T11:02:23;102423.97;;;10.46;100.00
42111;BME280;27766;52.174;5.456;2023-04-16T11:04:55;102430.38;;;10.54;100.00
42111;BME280;27766;52.174;5.456;2023-04-16T11:07:33;102431.19;;;10.34;100.00
42111;BME280;27766;52.174;5.456;2023-04-16T11:10:04;102427.63;;;10.32;100.00
42111;BME280;27766;52.174;5.456;2023-04-16T11:22:48;102430.03;;;10.47;100.00
42111;BME280;27766;52.174;5.456;2023-04-16T11:25:20;102426.31;;;10.40;100.00
42111;BME280;27766;52.174;5.456;2023-04-16T11:27:49;102439.72;;;10.51;100.00
42111;BME280;27766;52.174;5.456;2023-04-16T11:30:26;102441.50;;;10.52;100.00
42111;BME280;27766;52.174;5.456;2023-04-16T11:32:54;102435.75;;;10.39;100.00
42111;BME280;27766;52.174;5.456;2023-04-16T11:35:22;102440.00;;;10.37;100.00
42111;BME280;27766;52.174;5.456;2023-04-16T11:37:49;102435.91;;;10.42;100.00
42111;BME280;27766;52.174;5.456;2023-04-16T11:40:21;102441.44;;;10.32;100.00
42111;BME280;27766;52.174;5.456;2023-04-16T11:42:48;102429.31;;;10.31;100.00
42111;BME280;27766;52.174;5.456;2023-04-16T11:45:16;102437.25;;;10.54;100.00
42111;BME280;27766;52.174;5.456;2023-04-16T11:47:50;102430.88;;;10.45;100.00
42111;BME280;27766;52.174;5.456;2023-04-16T11:50:26;102436.09;;;10.47;100.00
42111;BME280;27766;52.174;5.456;2023-04-16T11:52:56;102436.03;;;10.45;100.00
42111;BME280;27766;52.174;5.456;2023-04-16T11:55:23;102440.06;;;10.39;100.00
42111;BME280;27766;52.174;5.456;2023-04-16T11:57:51;102438.94;;;10.34;100.00
42111;BME280;27766;52.174;5.456;2023-04-16T12:00:18;102437.41;;;10.37;100.00
42111;BME280;27766;52.174;5.456;2023-04-16T12:02:52;102448.44;;;10.53;100.00
42111;BME280;27766;52.174;5.456;2023-04-16T12:05:30;102446.41;;;10.45;100.00
42111;BME280;27766;52.174;5.456;2023-04-16T12:07:59;102434.31;;;10.26;100.00
42111;BME280;27766;52.174;5.456;2023-04-16T12:10:27;102446.09;;;10.39;100.00
42111;BME280;27766;52.174;5.456;2023-04-16T12:13:17;102445.97;;;10.56;100.00
42111;BME280;27766;52.174;5.456;2023-04-16T12:15:50;102445.34;;;10.61;100.00
42111;BME280;27766;52.174;5.456;2023-04-16T12:18:20;102457.50;;;10.63;100.00
42111;BME280;27766;52.174;5.456;2023-04-16T12:20:49;102458.34;;;10.63;100.00
42111;BME280;27766;52.174;5.456;2023-04-16T12:25:49;102462.31;;;10.55;100.00
42111;BME280;27766;52.174;5.456;2023-04-16T12:28:32;102462.59;;;10.61;100.00
42111;BME280;27766;52.174;5.456;2023-04-16T12:31:00;102461.38;;;10.53;100.00
42111;BME280;27766;52.174;5.456;2023-04-16T12:33:28;102465.56;;;10.70;100.00
42111;BME280;27766;52.174;5.456;2023-04-16T12:35:56;102458.22;;;10.80;100.00
42111;BME280;27766;52.174;5.456;2023-04-16T12:38:23;102449.72;;;10.63;100.00
42111;BME280;27766;52.174;5.456;2023-04-16T12:40:52;102459.53;;;10.70;100.00
42111;BME280;27766;52.174;5.456;2023-04-16T12:43:23;102459.72;;;10.55;100.00
42111;BME280;27766;52.174;5.456;2023-04-16T12:45:51;102466.00;;;10.60;100.00
42111;BME280;27766;52.174;5.456;2023-04-16T12:48:18;102454.75;;;10.59;100.00
42111;BME280;27766;52.174;5.456;2023-04-16T12:50:45;102462.53;;;10.79;100.00
42111;BME280;27766;52.174;5.456;2023-04-16T12:53:13;102453.44;;;10.69;100.00
42111;BME280;27766;52.174;5.456;2023-04-16T12:55:40;102461.50;;;10.75;100.00
42111;BME280;27766;52.174;5.456;2023-04-16T12:58:07;102459.84;;;10.77;100.00
42111;BME280;27766;52.174;5.456;2023-04-16T13:00:38;102462.88;;;10.88;100.00
42111;BME280;27766;52.174;5.456;2023-04-16T13:03:06;102452.28;;;10.82;100.00
42111;BME280;27766;52.174;5.456;2023-04-16T13:05:33;102462.72;;;10.84;100.00
42111;BME280;27766;52.174;5.456;2023-04-16T13:08:00;102462.56;;;10.81;100.00